KASE/ASE METAR and TAF weather

Enter ICAO airport designator
Station Type Date Time Source
KASE METAR 2019/08/24 20:53 UTC NOAA

KASE 242053Z 33009G20KT 290V030 10SM CLR 26/01 A3023 RMK AO2 SLP111 T02560011 58012


Station Type Date Time Source
KASE Decoded METAR 2019/08/24 20:53 UTC NOAA

Station name not available
Aug 24, 2019 - 04:53 PM EDT / 2019.08.24 2053 UTC
Wind: from the NNW (330 degrees) at 10 MPH (9 KT) gusting to 23 MPH (20 KT) (direction variable):0
Visibility: 10 mile(s):0
Sky conditions: clear
Temperature: 78.1 F (25.6 C)
Dew Point: 34.0 F (1.1 C)
Relative Humidity: 20%
Pressure (altimeter): 30.23 in. Hg (1023 hPa)
Pressure tendency: 0.04 inches (1.2 hPa) lower than three hours ago
ob: KASE 242053Z 33009G20KT 290V030 10SM CLR 26/01 A3023 RMK AO2 SLP111 T02560011 58012
cycle: 21

Station Type Date Time Source
KASE TAF 2019/08/24 18:22 UTC NOAA

TAF KASE 241720Z 2418/2518 32010G23KT P6SM FEW100 FEW180
FM250000 31009KT P6SM FEW120 FEW250
FM250400 21005KT P6SM SKC

Example: see airport list